createdAt,value
2018-09-06T00:00:54.388Z,9.73
2018-09-06T00:03:21.402Z,9.70
2018-09-06T00:05:48.433Z,9.67
2018-09-06T00:08:15.442Z,9.53
2018-09-06T00:10:42.441Z,10.17
2018-09-06T00:13:10.342Z,9.90
2018-09-06T00:15:38.298Z,9.27
2018-09-06T00:18:05.307Z,8.97
2018-09-06T00:20:32.448Z,8.70
2018-09-06T00:22:59.559Z,9.20
2018-09-06T00:25:26.557Z,9.37
2018-09-06T00:27:53.596Z,8.87
2018-09-06T00:30:20.683Z,9.90
2018-09-06T00:32:47.699Z,9.40
2018-09-06T00:35:14.753Z,9.27
2018-09-06T00:40:20.369Z,10.52
2018-09-06T00:42:48.233Z,9.57
2018-09-06T00:45:15.235Z,8.90
2018-09-06T00:47:43.136Z,8.77
2018-09-06T00:50:10.169Z,9.33
2018-09-06T00:52:37.179Z,8.73
2018-09-06T00:55:04.222Z,9.50
2018-09-06T00:57:32.185Z,9.13
2018-09-06T00:59:59.942Z,9.33
2018-09-06T01:02:26.987Z,9.43
2018-09-06T01:04:53.996Z,8.83
2018-09-06T01:07:20.988Z,9.03
2018-09-06T01:09:48.036Z,9.70
2018-09-06T01:12:15.038Z,8.77
2018-09-06T01:14:42.037Z,9.43
2018-09-06T01:17:09.095Z,10.03
2018-09-06T01:19:36.086Z,8.43
2018-09-06T01:22:03.090Z,9.43
2018-09-06T01:24:30.120Z,9.87
2018-09-06T01:26:57.120Z,9.17
2018-09-06T01:29:24.136Z,9.63
2018-09-06T01:31:51.183Z,10.27
2018-09-06T01:34:18.199Z,10.43
2018-09-06T01:36:46.056Z,9.43
2018-09-06T01:39:13.960Z,9.77
2018-09-06T01:41:41.913Z,10.10
2018-09-06T01:44:08.937Z,8.80
2018-09-06T01:46:35.988Z,10.17
2018-09-06T01:49:02.986Z,9.73
2018-09-06T01:51:29.988Z,8.37
2018-09-06T01:53:57.030Z,9.10
2018-09-06T01:59:04.562Z,10.68
2018-09-06T02:01:32.556Z,9.60
2018-09-06T02:03:59.558Z,8.57
2018-09-06T02:06:26.594Z,9.70
2018-09-06T02:08:53.605Z,9.70
2018-09-06T02:11:20.609Z,9.30
2018-09-06T02:13:48.399Z,10.27
2018-09-06T02:16:16.351Z,10.70
2018-09-06T02:18:44.213Z,10.43
2018-09-06T02:21:11.260Z,10.43
2018-09-06T02:23:38.305Z,10.50
2018-09-06T02:26:05.311Z,10.00
2018-09-06T02:28:32.372Z,11.07
2018-09-06T02:30:59.385Z,9.77
2018-09-06T02:33:26.382Z,10.30
2018-09-06T02:35:53.452Z,10.30
2018-09-06T02:38:20.449Z,10.27
2018-09-06T02:40:47.448Z,10.33
2018-09-06T02:43:14.481Z,10.30
2018-09-06T02:45:41.495Z,10.63
2018-09-06T02:48:08.501Z,10.40
2018-09-06T02:50:35.552Z,10.10
2018-09-06T02:53:02.954Z,10.70
2018-09-06T02:55:29.877Z,10.53
2018-09-06T02:57:56.901Z,9.63
2018-09-06T03:00:23.897Z,10.77
2018-09-06T03:02:50.893Z,11.07
2018-09-06T03:05:21.907Z,9.47
2018-09-06T03:07:49.008Z,9.53
2018-09-06T03:10:16.034Z,9.60
2018-09-06T03:12:43.935Z,10.50
2018-09-06T03:17:51.446Z,11.73
2018-09-06T03:20:18.446Z,10.37
2018-09-06T03:22:46.176Z,10.13
2018-09-06T03:25:14.174Z,9.50
2018-09-06T03:27:41.192Z,10.53
2018-09-06T03:30:08.283Z,9.70
2018-09-06T03:32:35.326Z,10.03
2018-09-06T03:35:03.069Z,10.63
2018-09-06T03:37:30.089Z,11.67
2018-09-06T03:39:57.212Z,9.77
2018-09-06T03:42:25.171Z,9.67
2018-09-06T03:44:52.192Z,9.77
2018-09-06T03:47:19.240Z,10.13
2018-09-06T03:49:46.241Z,9.53
2018-09-06T03:52:13.268Z,10.67
2018-09-06T03:54:41.254Z,9.90
2018-09-06T03:57:08.255Z,10.43
2018-09-06T03:59:35.259Z,9.77
2018-09-06T04:02:02.310Z,10.53
2018-09-06T04:04:29.320Z,9.90
2018-09-06T04:09:38.528Z,11.07
2018-09-06T04:12:05.541Z,9.80
2018-09-06T04:14:32.630Z,9.67
2018-09-06T04:16:59.658Z,9.70
2018-09-06T04:19:26.654Z,9.90
2018-09-06T04:21:53.665Z,10.27
2018-09-06T04:24:20.789Z,10.83
2018-09-06T04:26:47.710Z,10.30
2018-09-06T04:29:14.709Z,9.20
2018-09-06T04:31:41.754Z,9.17
2018-09-06T04:34:08.761Z,8.87
2018-09-06T04:36:35.756Z,8.87
2018-09-06T04:39:02.790Z,8.73
2018-09-06T04:41:29.783Z,8.27
2018-09-06T04:43:56.903Z,8.03
2018-09-06T04:46:23.935Z,8.40
2018-09-06T04:48:50.938Z,9.27
2018-09-06T04:51:17.937Z,9.37
2018-09-06T04:53:44.973Z,8.80
2018-09-06T04:56:11.988Z,9.43
2018-09-06T04:58:39.060Z,9.43
2018-09-06T05:01:06.046Z,9.17
2018-09-06T05:03:33.133Z,10.37
2018-09-06T05:06:00.974Z,10.57
2018-09-06T05:08:28.012Z,9.70
2018-09-06T05:10:55.018Z,9.77
2018-09-06T05:13:22.030Z,10.00
2018-09-06T05:15:49.073Z,10.23
2018-09-06T05:18:16.086Z,9.70
2018-09-06T05:20:43.224Z,10.27
2018-09-06T05:23:11.044Z,10.07
2018-09-06T05:28:16.602Z,10.90
2018-09-06T05:30:44.626Z,9.37
2018-09-06T05:33:12.341Z,9.37
2018-09-06T05:35:38.887Z,9.83
2018-09-06T05:38:05.906Z,9.93
2018-09-06T05:40:32.903Z,10.17
2018-09-06T05:42:59.949Z,10.33
2018-09-06T05:45:27.002Z,10.10
2018-09-06T05:47:54.352Z,10.87
2018-09-06T05:50:21.396Z,9.67
2018-09-06T05:52:48.408Z,10.53
2018-09-06T05:55:15.425Z,9.93
2018-09-06T05:57:42.476Z,10.60
2018-09-06T06:00:09.579Z,10.40
2018-09-06T06:02:37.365Z,10.23
2018-09-06T06:05:05.368Z,10.07
2018-09-06T06:07:33.107Z,9.80
2018-09-06T06:10:00.130Z,10.10
2018-09-06T06:12:27.179Z,9.40
2018-09-06T06:14:54.296Z,8.83
2018-09-06T06:17:21.299Z,8.73
2018-09-06T06:19:48.579Z,9.70
2018-09-06T06:22:15.935Z,9.47
2018-09-06T06:24:42.829Z,9.10
2018-09-06T06:27:09.896Z,9.03
2018-09-06T06:29:36.908Z,9.30
2018-09-06T06:32:04.020Z,9.53
2018-09-06T06:34:31.033Z,8.70
2018-09-06T06:36:58.064Z,9.47
2018-09-06T06:39:25.686Z,8.50
2018-09-06T06:41:52.758Z,7.67
2018-09-06T06:46:58.261Z,9.15
2018-09-06T06:49:25.279Z,8.23
2018-09-06T06:51:53.255Z,8.80
2018-09-06T06:54:20.306Z,7.47
2018-09-06T06:56:47.314Z,7.07
2018-09-06T06:59:14.316Z,7.87
2018-09-06T07:01:41.359Z,6.30
2018-09-06T07:04:08.424Z,6.00
2018-09-06T07:06:35.369Z,6.53
2018-09-06T07:09:02.421Z,6.20
2018-09-06T07:11:29.424Z,6.00
2018-09-06T07:13:56.438Z,6.10
2018-09-06T07:16:23.488Z,6.23
2018-09-06T07:18:50.579Z,6.30
2018-09-06T07:21:18.407Z,6.50
2018-09-06T07:26:23.893Z,6.40
2018-09-06T07:28:50.958Z,5.87
2018-09-06T07:31:18.245Z,5.07
2018-09-06T07:33:45.020Z,5.57
2018-09-06T07:36:12.074Z,5.53
2018-09-06T07:38:39.066Z,6.07
2018-09-06T07:41:06.089Z,5.57
2018-09-06T07:43:33.115Z,5.17
2018-09-06T07:46:01.074Z,5.50
2018-09-06T07:48:28.952Z,5.67
2018-09-06T07:50:56.814Z,5.47
2018-09-06T07:53:23.814Z,5.10
2018-09-06T07:55:50.805Z,5.20
2018-09-06T07:58:17.837Z,4.67
2018-09-06T08:00:44.843Z,5.23
2018-09-06T08:03:12.739Z,5.63
2018-09-06T08:05:39.775Z,5.17
2018-09-06T08:08:06.785Z,5.17
2018-09-06T08:10:33.779Z,5.10
2018-09-06T08:13:00.804Z,5.60
2018-09-06T08:15:27.806Z,5.17
2018-09-06T08:17:54.807Z,5.30
2018-09-06T08:20:21.837Z,4.60
2018-09-06T08:22:48.833Z,4.53
2018-09-06T08:27:54.347Z,5.37
2018-09-06T08:30:21.358Z,4.67
2018-09-06T08:32:48.348Z,5.17
2018-09-06T08:35:15.368Z,5.07
2018-09-06T08:37:42.367Z,4.47
2018-09-06T08:40:09.364Z,5.03
2018-09-06T08:42:36.415Z,4.90
2018-09-06T08:45:03.480Z,5.43
2018-09-06T08:47:30.582Z,5.40
2018-09-06T19:13:55.598Z,3.08
2018-09-06T19:16:22.697Z,2.83
2018-09-06T19:18:49.636Z,2.80
2018-09-06T19:21:19.864Z,2.50
2018-09-06T19:23:48.665Z,2.30
2018-09-06T19:26:16.892Z,2.20
